Terminal Aerodrome Forecast
Issued by NWS

Current Version | Previous Version | Graphics & Text | Print | Product List | Glossary On
Versions: 1 2 3 4 5 6 7 8 9 10 11 12 13 14 15 16 17 18 19
000
FTUS41 KILN 210700 AAA
TAFLUK
TAF AMD
KLUK 210737Z 2108/2206 01005KT P6SM -RA BKN040
     FM211000 02005KT P6SM SCT008 BKN015
     FM211200 36006KT P6SM OVC025
     FM211500 33008KT P6SM BKN035
     FM212000 32010KT P6SM SCT045
     FM220500 28004KT P6SM FEW040=

USA.gov is the U.S. government's official web portal to all federal, state and local government web resources and services.